createdAt,value
2023-04-29T00:00:39.952Z,7.27
2023-04-29T00:03:06.704Z,10.47
2023-04-29T00:05:33.631Z,8.57
2023-04-29T00:08:00.479Z,6.73
2023-04-29T00:10:27.076Z,7.53
2023-04-29T00:12:54.391Z,8.07
2023-04-29T00:15:21.300Z,8.37
2023-04-29T00:17:48.285Z,7.37
2023-04-29T00:20:15.097Z,8.07
2023-04-29T00:22:41.926Z,11.00
2023-04-29T00:25:09.117Z,7.17
2023-04-29T00:27:35.721Z,9.37
2023-04-29T00:30:03.715Z,8.53
2023-04-29T00:32:30.306Z,8.67
2023-04-29T00:34:57.370Z,6.97
2023-04-29T00:37:23.990Z,7.43
2023-04-29T00:39:51.005Z,7.00
2023-04-29T00:42:18.129Z,6.83
2023-04-29T00:44:44.688Z,9.73
2023-04-29T00:47:11.617Z,7.93
2023-04-29T00:49:41.633Z,8.73
2023-04-29T00:52:08.445Z,9.00
2023-04-29T00:54:36.911Z,8.97
2023-04-29T00:57:06.711Z,8.00
2023-04-29T00:59:34.444Z,7.10
2023-04-29T01:02:10.791Z,8.93
2023-04-29T01:04:37.565Z,9.73
2023-04-29T01:07:18.977Z,9.27
2023-04-29T01:10:03.384Z,9.83
2023-04-29T01:12:38.617Z,9.63
2023-04-29T01:15:26.186Z,8.13
2023-04-29T01:18:23.199Z,8.17
2023-04-29T01:20:50.856Z,7.77
2023-04-29T01:23:17.535Z,9.63
2023-04-29T01:25:45.136Z,8.37
2023-04-29T01:28:20.684Z,10.60
2023-04-29T01:30:57.995Z,10.50
2023-04-29T01:33:40.353Z,9.70
2023-04-29T01:36:33.906Z,9.20
2023-04-29T01:39:33.462Z,10.93
2023-04-29T01:42:19.944Z,12.67
2023-04-29T01:44:48.886Z,12.10
2023-04-29T01:47:16.338Z,9.93
2023-04-29T01:49:42.986Z,12.13
2023-04-29T01:52:09.595Z,10.27
2023-04-29T01:54:36.505Z,11.83
2023-04-29T01:57:03.455Z,9.30
2023-04-29T01:59:31.721Z,10.37
2023-04-29T02:01:58.938Z,10.20
2023-04-29T02:04:25.833Z,14.43
2023-04-29T02:06:52.805Z,10.43
2023-04-29T02:09:19.419Z,11.13
2023-04-29T02:11:45.995Z,14.60
2023-04-29T02:14:12.779Z,10.93
2023-04-29T02:16:39.477Z,12.27
2023-04-29T02:19:06.115Z,10.30
2023-04-29T02:21:32.736Z,12.77
2023-04-29T02:23:59.315Z,12.00
2023-04-29T02:26:25.893Z,10.90
2023-04-29T02:28:52.593Z,11.20
2023-04-29T02:31:19.284Z,11.77
2023-04-29T02:33:45.954Z,13.70
2023-04-29T02:36:12.537Z,13.70
2023-04-29T02:38:39.142Z,13.53
2023-04-29T02:41:05.784Z,11.73
2023-04-29T02:43:32.637Z,14.23
2023-04-29T02:46:00.265Z,12.70
2023-04-29T02:48:26.972Z,12.63
2023-04-29T02:50:53.569Z,13.63
2023-04-29T02:53:20.920Z,12.90
2023-04-29T02:55:48.344Z,11.87
2023-04-29T02:58:14.934Z,14.97
2023-04-29T03:00:42.175Z,13.00
2023-04-29T03:03:09.352Z,14.80
2023-04-29T03:05:36.107Z,14.27
2023-04-29T03:08:04.092Z,14.00
2023-04-29T03:10:31.005Z,13.73
2023-04-29T03:12:57.608Z,15.47
2023-04-29T03:15:24.200Z,14.23
2023-04-29T03:17:50.880Z,17.67
2023-04-29T03:20:17.717Z,16.63
2023-04-29T03:22:44.364Z,16.90
2023-04-29T03:25:11.022Z,16.17
2023-04-29T03:27:37.571Z,18.40
2023-04-29T03:30:04.617Z,15.67
2023-04-29T03:32:31.248Z,17.37
2023-04-29T03:34:57.807Z,17.80
2023-04-29T03:37:24.417Z,17.77
2023-04-29T03:39:51.141Z,18.90
2023-04-29T03:42:17.947Z,19.57
2023-04-29T03:44:44.537Z,19.63
2023-04-29T03:47:11.228Z,20.50
2023-04-29T03:49:37.814Z,19.33
2023-04-29T03:52:04.793Z,18.40
2023-04-29T03:54:31.638Z,17.00
2023-04-29T03:56:58.202Z,18.70
2023-04-29T03:59:24.873Z,18.80
2023-04-29T04:01:54.086Z,19.43
2023-04-29T04:04:21.584Z,19.50
2023-04-29T04:06:51.717Z,19.93
2023-04-29T04:09:18.602Z,20.77
2023-04-29T04:11:45.699Z,20.53
2023-04-29T04:14:12.389Z,20.93
2023-04-29T04:16:39.023Z,21.20
2023-04-29T04:19:05.615Z,22.57
2023-04-29T04:21:32.180Z,22.57
2023-04-29T04:23:58.741Z,23.97
2023-04-29T04:26:25.379Z,26.83
2023-04-29T04:28:52.230Z,24.00
2023-04-29T04:31:18.842Z,23.47
2023-04-29T04:33:45.452Z,24.93
2023-04-29T04:36:13.399Z,27.13
2023-04-29T04:38:39.996Z,24.20
2023-04-29T04:41:08.051Z,25.13
2023-04-29T04:43:34.640Z,23.03
2023-04-29T04:46:09.409Z,31.43
2023-04-29T04:48:36.163Z,26.20
2023-04-29T04:51:13.627Z,25.20
2023-04-29T04:53:40.853Z,24.13
2023-04-29T04:56:08.302Z,23.77
2023-04-29T04:58:34.878Z,25.23
2023-04-29T05:01:01.714Z,27.00
2023-04-29T05:03:28.606Z,28.57
2023-04-29T05:05:56.827Z,29.30
2023-04-29T05:08:23.433Z,29.83
2023-04-29T05:10:50.106Z,29.60
2023-04-29T05:13:16.749Z,29.40
2023-04-29T05:15:43.830Z,29.63
2023-04-29T05:18:11.343Z,28.57
2023-04-29T05:20:38.097Z,30.93
2023-04-29T05:23:04.686Z,26.87
2023-04-29T05:25:31.534Z,30.13
2023-04-29T05:27:58.260Z,28.50
2023-04-29T05:30:24.859Z,28.50
2023-04-29T05:32:51.769Z,29.90
2023-04-29T05:35:18.373Z,30.87
2023-04-29T05:37:44.923Z,28.73
2023-04-29T05:40:11.858Z,29.43
2023-04-29T05:42:38.418Z,25.33
2023-04-29T05:45:05.385Z,24.27
2023-04-29T05:47:31.979Z,23.63
2023-04-29T05:49:58.768Z,23.87
2023-04-29T05:52:25.472Z,25.30
2023-04-29T05:54:52.062Z,26.40
2023-04-29T05:57:18.648Z,24.90
2023-04-29T05:59:45.542Z,27.20
2023-04-29T06:02:12.455Z,24.97
2023-04-29T06:04:41.446Z,24.27
2023-04-29T06:07:09.271Z,28.23
2023-04-29T06:09:36.656Z,25.50
2023-04-29T06:12:03.516Z,25.47
2023-04-29T06:14:30.328Z,25.97
2023-04-29T06:16:57.103Z,24.57
2023-04-29T06:19:25.293Z,28.80
2023-04-29T06:21:51.947Z,26.43
2023-04-29T06:24:18.529Z,29.03
2023-04-29T06:26:45.577Z,25.63
2023-04-29T06:29:12.465Z,27.70
2023-04-29T06:31:39.073Z,25.93
2023-04-29T06:34:05.866Z,24.40
2023-04-29T06:36:33.047Z,23.27
2023-04-29T06:38:59.713Z,25.47
2023-04-29T06:41:26.753Z,25.30
2023-04-29T06:43:53.349Z,23.13
2023-04-29T06:46:20.042Z,21.53
2023-04-29T06:48:46.649Z,20.77
2023-04-29T06:51:13.352Z,20.53
2023-04-29T06:53:39.965Z,21.00
2023-04-29T06:56:07.235Z,20.10
2023-04-29T06:58:40.045Z,20.13
2023-04-29T07:01:08.362Z,19.63
2023-04-29T07:03:35.085Z,20.37
2023-04-29T07:06:01.805Z,21.77
2023-04-29T07:08:28.733Z,18.70
2023-04-29T07:10:58.737Z,19.57
2023-04-29T07:13:26.077Z,19.57
2023-04-29T07:15:52.978Z,17.67
2023-04-29T07:18:19.697Z,19.10
2023-04-29T07:20:47.877Z,18.27
2023-04-29T07:23:15.248Z,18.23
2023-04-29T07:25:41.981Z,17.93
2023-04-29T07:28:09.171Z,16.63
2023-04-29T07:30:36.215Z,17.00
2023-04-29T07:33:04.285Z,16.93
2023-04-29T07:35:31.561Z,16.27
2023-04-29T07:37:58.267Z,15.00
2023-04-29T07:40:24.993Z,15.43
2023-04-29T07:42:51.738Z,15.33
2023-04-29T07:45:18.464Z,15.57
2023-04-29T07:47:45.777Z,16.70
2023-04-29T07:50:12.674Z,13.23
2023-04-29T07:52:39.305Z,13.07
2023-04-29T07:55:06.185Z,12.67
2023-04-29T07:57:32.788Z,15.30
2023-04-29T07:59:59.656Z,12.43
2023-04-29T08:02:26.420Z,12.30
2023-04-29T08:04:54.649Z,12.20
2023-04-29T08:07:21.713Z,11.77
2023-04-29T08:09:48.291Z,11.53
2023-04-29T08:12:14.894Z,12.13
2023-04-29T08:14:41.802Z,11.60
2023-04-29T08:17:08.835Z,11.27
2023-04-29T08:19:35.897Z,11.00
2023-04-29T08:22:04.261Z,11.57
2023-04-29T08:24:31.121Z,12.13
2023-04-29T08:26:59.174Z,11.77
2023-04-29T08:29:26.188Z,12.67
2023-04-29T08:31:53.052Z,12.97
2023-04-29T08:34:19.734Z,12.40
2023-04-29T08:36:46.355Z,12.47
2023-04-29T08:39:12.917Z,12.63
2023-04-29T08:41:39.588Z,12.00
2023-04-29T08:44:06.748Z,12.77
2023-04-29T08:46:33.508Z,12.17
2023-04-29T08:49:03.951Z,13.77
2023-04-29T08:51:32.464Z,13.23
2023-04-29T08:54:00.758Z,12.77
2023-04-29T08:56:28.860Z,14.07
2023-04-29T08:58:58.951Z,12.97
2023-04-29T09:01:28.959Z,12.23
2023-04-29T09:04:28.883Z,15.63
2023-04-29T09:06:59.673Z,17.60
2023-04-29T09:09:26.659Z,19.20
2023-04-29T09:11:53.466Z,21.43
2023-04-29T09:14:21.093Z,24.27
2023-04-29T09:16:48.400Z,25.77
2023-04-29T09:19:35.601Z,27.50
2023-04-29T09:22:07.942Z,27.33
2023-04-29T09:24:34.627Z,25.93
2023-04-29T09:27:03.329Z,27.00
2023-04-29T09:29:32.960Z,27.90
2023-04-29T09:31:59.724Z,28.77
2023-04-29T09:34:38.437Z,27.03
2023-04-29T09:37:27.882Z,28.83
2023-04-29T09:39:54.992Z,30.67
2023-04-29T09:42:21.636Z,32.30
2023-04-29T09:44:48.589Z,32.13
2023-04-29T09:47:15.572Z,31.23
2023-04-29T09:49:45.430Z,29.30
2023-04-29T09:52:13.992Z,32.23
2023-04-29T09:54:42.469Z,35.13
2023-04-29T09:57:11.256Z,36.57
2023-04-29T09:59:40.348Z,39.83
2023-04-29T10:02:20.919Z,36.87
2023-04-29T10:04:57.453Z,43.67
2023-04-29T10:07:28.002Z,40.50
2023-04-29T10:09:55.524Z,44.50
2023-04-29T10:12:23.882Z,42.70
2023-04-29T10:15:09.863Z,42.93
2023-04-29T10:18:14.267Z,42.33
2023-04-29T10:20:47.408Z,42.10
2023-04-29T10:23:15.292Z,41.23
2023-04-29T10:25:46.706Z,40.77
2023-04-29T10:28:16.766Z,45.50
2023-04-29T10:30:45.741Z,39.47
2023-04-29T10:33:16.406Z,38.53
2023-04-29T10:35:45.059Z,37.67
2023-04-29T10:38:20.358Z,34.23
2023-04-29T10:40:48.760Z,37.50
2023-04-29T10:43:16.150Z,33.63
2023-04-29T10:45:42.806Z,32.47
2023-04-29T10:48:12.924Z,31.80
2023-04-29T10:50:48.686Z,31.03
2023-04-29T10:53:19.557Z,30.43
2023-04-29T10:55:57.049Z,27.27
2023-04-29T10:58:46.436Z,26.83
2023-04-29T11:01:15.401Z,29.77
2023-04-29T11:04:05.617Z,27.63
2023-04-29T11:06:35.338Z,25.63
2023-04-29T11:09:14.414Z,23.40
2023-04-29T11:11:46.185Z,25.13
2023-04-29T11:14:14.149Z,23.40
2023-04-29T11:17:07.737Z,22.53
2023-04-29T11:19:36.621Z,25.30
2023-04-29T11:22:18.421Z,22.07
2023-04-29T11:24:55.678Z,25.60
2023-04-29T11:27:27.881Z,24.83
2023-04-29T11:29:58.156Z,23.73
2023-04-29T11:32:29.258Z,18.50
2023-04-29T11:34:56.586Z,20.60
2023-04-29T11:37:25.962Z,20.83
2023-04-29T11:40:00.385Z,18.63
2023-04-29T11:42:28.516Z,18.13
2023-04-29T11:45:00.401Z,19.17
2023-04-29T11:47:31.532Z,17.10
2023-04-29T11:50:12.534Z,16.83
2023-04-29T11:52:40.672Z,15.97
2023-04-29T11:55:12.026Z,16.80
2023-04-29T11:57:41.765Z,17.40
2023-04-29T12:00:13.499Z,16.27
2023-04-29T12:02:45.389Z,15.07
2023-04-29T12:05:15.742Z,15.77
2023-04-29T12:07:43.626Z,13.73
2023-04-29T12:10:11.923Z,16.53
2023-04-29T12:12:41.353Z,15.80
2023-04-29T12:15:13.695Z,14.00
2023-04-29T12:17:41.289Z,15.33
2023-04-29T12:20:12.675Z,14.43
2023-04-29T12:22:39.727Z,13.23
2023-04-29T12:25:08.016Z,14.47
2023-04-29T12:27:40.027Z,13.80
2023-04-29T12:30:09.363Z,17.07
2023-04-29T12:32:37.089Z,11.80
2023-04-29T12:35:04.031Z,13.47
2023-04-29T12:37:30.871Z,15.03
2023-04-29T12:39:57.625Z,12.10
2023-04-29T12:42:24.279Z,11.10
2023-04-29T12:44:51.000Z,11.20
2023-04-29T12:47:17.734Z,11.93
2023-04-29T12:49:49.289Z,12.77
2023-04-29T12:52:16.131Z,13.93
2023-04-29T12:54:43.662Z,13.33
2023-04-29T12:57:11.900Z,10.37
2023-04-29T12:59:39.677Z,10.35
2023-04-29T13:02:06.448Z,13.57
2023-04-29T13:04:33.299Z,8.80
2023-04-29T13:07:00.698Z,9.00
2023-04-29T13:09:27.451Z,10.57
2023-04-29T13:11:54.394Z,8.73
2023-04-29T13:14:21.405Z,8.25
2023-04-29T13:16:48.168Z,10.57
2023-04-29T13:19:32.221Z,10.02
2023-04-29T13:22:01.825Z,10.02
2023-04-29T13:24:28.405Z,8.27
2023-04-29T13:26:55.014Z,6.80
2023-04-29T13:29:21.647Z,7.50
2023-04-29T13:31:48.404Z,8.63
2023-04-29T13:34:15.108Z,7.40
2023-04-29T13:36:41.774Z,8.43
2023-04-29T13:39:08.845Z,7.10
2023-04-29T13:41:35.734Z,7.30
2023-04-29T13:44:03.060Z,6.97
2023-04-29T13:46:31.999Z,6.50
2023-04-29T13:54:48.082Z,9.43
2023-04-29T13:59:40.090Z,9.45
2023-04-29T14:04:31.473Z,10.13
2023-04-29T14:06:58.343Z,8.52
2023-04-29T14:09:25.031Z,9.40
2023-04-29T14:11:51.871Z,8.35
2023-04-29T14:14:18.435Z,10.90
2023-04-29T14:16:45.053Z,9.50
2023-04-29T14:19:11.973Z,9.75
2023-04-29T14:21:38.996Z,11.77
2023-04-29T14:24:05.839Z,13.13
2023-04-29T14:26:32.410Z,9.13
2023-04-29T14:29:00.258Z,10.10
2023-04-29T14:31:29.199Z,11.17
2023-04-29T14:33:56.831Z,10.68
2023-04-29T14:36:23.544Z,10.23
2023-04-29T14:38:50.276Z,9.73
2023-04-29T14:41:16.967Z,11.50
2023-04-29T14:43:44.351Z,8.80
2023-04-29T14:46:11.053Z,10.88
2023-04-29T14:48:37.704Z,7.95
2023-04-29T14:51:04.541Z,8.73
2023-04-29T14:53:31.113Z,8.00
2023-04-29T14:55:57.890Z,9.65
2023-04-29T14:58:24.577Z,6.38
2023-04-29T15:00:51.686Z,8.60
2023-04-29T15:03:22.570Z,8.02
2023-04-29T15:05:51.305Z,9.48
2023-04-29T15:08:19.084Z,10.20
2023-04-29T15:10:47.386Z,7.93
2023-04-29T15:13:14.098Z,8.00
2023-04-29T15:15:40.728Z,11.40
2023-04-29T15:18:08.777Z,7.45
2023-04-29T15:20:36.674Z,8.10
2023-04-29T15:23:04.149Z,12.60
2023-04-29T15:25:33.312Z,7.75
2023-04-29T15:28:00.053Z,8.30
2023-04-29T15:30:27.198Z,9.70
2023-04-29T15:32:55.545Z,10.13
2023-04-29T15:35:22.244Z,7.70
2023-04-29T15:37:49.141Z,9.57
2023-04-29T15:40:16.854Z,7.78
2023-04-29T15:42:43.463Z,10.02
2023-04-29T15:45:10.792Z,7.65
2023-04-29T15:47:37.499Z,9.88
2023-04-29T15:50:04.396Z,8.10
2023-04-29T15:52:31.053Z,7.65
2023-04-29T15:54:58.400Z,9.82
2023-04-29T15:57:25.825Z,8.40
2023-04-29T15:59:52.738Z,9.43
2023-04-29T16:02:20.363Z,10.63
2023-04-29T16:04:46.953Z,9.00
2023-04-29T16:07:13.674Z,9.27
2023-04-29T16:09:40.303Z,9.07
2023-04-29T16:12:08.043Z,10.15
2023-04-29T16:14:34.640Z,10.00
2023-04-29T16:17:01.391Z,12.25
2023-04-29T16:19:28.285Z,9.18
2023-04-29T16:21:55.516Z,10.25
2023-04-29T16:24:22.181Z,7.65
2023-04-29T16:26:50.731Z,9.38
2023-04-29T16:29:18.281Z,11.63
2023-04-29T16:31:44.983Z,9.40
2023-04-29T16:34:12.370Z,6.97
2023-04-29T16:36:39.324Z,10.50
2023-04-29T16:39:06.188Z,8.88
2023-04-29T16:41:33.016Z,7.03
2023-04-29T16:43:59.637Z,8.07
2023-04-29T16:46:26.248Z,8.30
2023-04-29T16:48:56.653Z,7.57
2023-04-29T16:51:29.114Z,10.38
2023-04-29T16:53:55.697Z,9.65
2023-04-29T16:56:22.509Z,8.02
2023-04-29T16:58:49.313Z,9.85
2023-04-29T17:01:19.102Z,5.90
2023-04-29T17:03:47.343Z,5.53
2023-04-29T17:06:15.614Z,6.68
2023-04-29T17:08:43.043Z,8.05
2023-04-29T17:11:10.358Z,5.45
2023-04-29T17:13:37.031Z,3.40
2023-04-29T17:16:04.542Z,5.60
2023-04-29T17:18:31.211Z,6.53
2023-04-29T17:20:58.117Z,6.10
2023-04-29T17:23:24.873Z,4.77
2023-04-29T17:25:51.440Z,4.95
2023-04-29T17:28:18.014Z,7.13
2023-04-29T17:30:44.602Z,6.27
2023-04-29T17:33:13.261Z,7.70
2023-04-29T17:35:40.756Z,7.60
2023-04-29T17:38:07.346Z,4.70
2023-04-29T17:40:34.166Z,4.90
2023-04-29T17:43:01.161Z,5.40
2023-04-29T17:45:27.818Z,6.70
2023-04-29T17:47:54.508Z,6.30
2023-04-29T17:50:21.280Z,4.17
2023-04-29T17:52:48.361Z,6.20
2023-04-29T17:55:14.945Z,5.50
2023-04-29T17:57:42.048Z,6.60
2023-04-29T18:00:09.671Z,5.18
2023-04-29T18:02:37.184Z,5.93
2023-04-29T18:05:04.236Z,5.37
2023-04-29T18:07:30.925Z,4.93
2023-04-29T18:09:58.085Z,6.13
2023-04-29T18:12:25.143Z,4.00
2023-04-29T18:14:52.259Z,6.13
2023-04-29T18:17:19.287Z,4.30
2023-04-29T18:19:52.349Z,4.37
2023-04-29T18:22:19.129Z,4.95
2023-04-29T18:24:46.624Z,5.60
2023-04-29T18:27:13.239Z,6.30
2023-04-29T18:29:39.838Z,4.18
2023-04-29T18:32:07.934Z,8.30
2023-04-29T18:34:35.017Z,7.63
2023-04-29T18:37:01.772Z,5.33
2023-04-29T18:39:28.405Z,7.20
2023-04-29T18:41:55.261Z,5.03
2023-04-29T18:44:21.838Z,6.10
2023-04-29T18:46:48.491Z,6.33
2023-04-29T18:49:18.283Z,6.90
2023-04-29T18:51:48.057Z,7.50
2023-04-29T18:54:15.925Z,5.90
2023-04-29T18:56:46.440Z,5.37
2023-04-29T18:59:15.790Z,5.23
2023-04-29T19:01:43.161Z,4.27
2023-04-29T19:04:10.370Z,4.90
2023-04-29T19:06:37.460Z,4.83
2023-04-29T19:09:05.533Z,5.63
2023-04-29T19:11:32.195Z,4.33
2023-04-29T19:13:58.884Z,5.80
2023-04-29T19:16:26.342Z,3.93
2023-04-29T19:18:53.214Z,4.30
2023-04-29T19:21:20.206Z,4.00
2023-04-29T19:23:47.025Z,4.50
2023-04-29T19:26:13.652Z,5.47
2023-04-29T19:28:40.464Z,4.10
2023-04-29T19:31:07.154Z,4.10
2023-04-29T19:33:33.931Z,3.97
2023-04-29T19:36:00.847Z,4.17
2023-04-29T19:38:27.686Z,4.83
2023-04-29T19:40:55.984Z,3.17
2023-04-29T19:43:23.112Z,5.53
2023-04-29T19:45:52.702Z,5.27
2023-04-29T19:48:21.190Z,5.87
2023-04-29T19:50:47.923Z,4.83
2023-04-29T19:53:14.705Z,4.60
2023-04-29T19:55:41.517Z,4.67
2023-04-29T19:58:08.200Z,5.53
2023-04-29T20:00:35.274Z,5.70
2023-04-29T20:03:02.736Z,5.03
2023-04-29T20:05:29.648Z,8.03
2023-04-29T20:07:56.303Z,3.77
2023-04-29T20:10:23.141Z,5.17
2023-04-29T20:12:49.868Z,6.37
2023-04-29T20:15:16.812Z,7.33
2023-04-29T20:17:43.691Z,5.47
2023-04-29T20:20:10.635Z,6.27
2023-04-29T20:22:37.643Z,5.50
2023-04-29T20:25:04.771Z,6.07
2023-04-29T20:27:31.379Z,9.83
2023-04-29T20:29:57.981Z,7.30
2023-04-29T20:32:24.753Z,6.03
2023-04-29T20:34:51.973Z,4.97
2023-04-29T20:37:19.801Z,6.83
2023-04-29T20:39:47.247Z,7.30
2023-04-29T20:42:14.242Z,6.27
2023-04-29T20:44:41.555Z,5.90
2023-04-29T20:47:08.601Z,6.03
2023-04-29T20:49:35.186Z,6.73
2023-04-29T20:52:02.073Z,6.30
2023-04-29T20:54:28.660Z,9.43
2023-04-29T20:56:55.245Z,6.63
2023-04-29T20:59:21.793Z,7.83
2023-04-29T21:01:48.396Z,4.70
2023-04-29T21:04:15.326Z,6.93
2023-04-29T21:06:42.025Z,7.30
2023-04-29T21:09:11.360Z,7.13
2023-04-29T21:11:37.976Z,10.13
2023-04-29T21:14:04.568Z,6.53
2023-04-29T21:16:31.186Z,8.83
2023-04-29T21:18:57.803Z,9.63
2023-04-29T21:21:25.163Z,8.47
2023-04-29T21:23:51.740Z,6.80
2023-04-29T21:26:18.444Z,8.47
2023-04-29T21:28:45.694Z,7.40
2023-04-29T21:31:16.573Z,7.70
2023-04-29T21:33:46.661Z,8.63
2023-04-29T21:36:13.776Z,7.43
2023-04-29T21:38:42.629Z,7.70
2023-04-29T21:41:23.044Z,7.83
2023-04-29T21:43:50.418Z,7.57
2023-04-29T21:46:17.532Z,8.43
2023-04-29T21:48:44.440Z,6.37
2023-04-29T21:51:11.343Z,8.77
2023-04-29T21:53:41.518Z,7.13
2023-04-29T21:56:08.127Z,7.20
2023-04-29T21:58:34.678Z,4.93
2023-04-29T22:01:03.476Z,8.10
2023-04-29T22:03:32.383Z,4.63
2023-04-29T22:05:59.036Z,8.40
2023-04-29T22:08:25.697Z,6.37
2023-04-29T22:10:52.319Z,6.47
2023-04-29T22:13:18.903Z,5.13
2023-04-29T22:15:45.498Z,5.30
2023-04-29T22:18:12.253Z,5.57
2023-04-29T22:20:38.938Z,5.27
2023-04-29T22:23:05.676Z,6.07
2023-04-29T22:25:32.361Z,10.00
2023-04-29T22:27:59.041Z,5.40
2023-04-29T22:30:25.645Z,5.27
2023-04-29T22:32:52.556Z,6.60
2023-04-29T22:35:19.282Z,5.37
2023-04-29T22:37:46.418Z,3.67
2023-04-29T22:40:13.647Z,4.73
2023-04-29T22:42:41.836Z,7.27
2023-04-29T22:45:10.118Z,5.23
2023-04-29T22:47:36.697Z,4.73
2023-04-29T22:50:03.602Z,4.80
2023-04-29T22:52:32.577Z,4.57
2023-04-29T22:54:59.752Z,4.43
2023-04-29T22:57:26.324Z,7.67
2023-04-29T22:59:56.809Z,6.20
2023-04-29T23:02:28.984Z,6.10
2023-04-29T23:04:56.475Z,3.93
2023-04-29T23:07:23.485Z,3.87
2023-04-29T23:09:50.849Z,5.63
2023-04-29T23:12:18.247Z,4.87
2023-04-29T23:14:45.657Z,8.13
2023-04-29T23:17:12.336Z,8.00
2023-04-29T23:19:38.981Z,2.90
2023-04-29T23:22:08.543Z,6.90
2023-04-29T23:24:35.573Z,3.73
2023-04-29T23:27:05.499Z,5.27
2023-04-29T23:29:33.904Z,6.10
2023-04-29T23:32:01.149Z,5.40
2023-04-29T23:34:27.766Z,7.13
2023-04-29T23:36:54.344Z,4.07
2023-04-29T23:39:20.925Z,7.63
2023-04-29T23:41:47.611Z,7.97
2023-04-29T23:44:14.200Z,5.30
2023-04-29T23:46:40.887Z,5.30
2023-04-29T23:49:07.599Z,7.47
2023-04-29T23:51:34.312Z,4.47
2023-04-29T23:54:00.834Z,5.30
2023-04-29T23:56:29.125Z,4.07
2023-04-29T23:58:55.854Z,4.87
